Nyk Constellation — V7NP4 — position and weather

sailwx.info

Track history (hours):
 
Tides and Currents Weather Stations Pressure Air Temp Water Temp Dewpoint Dewpoint Depression Visibility Wind Speed Wind Dir Waves Ship Positions

Nyk Constellation

Last reported at 2016-May-03 22:27 UTC. Time now 2016-May-05 02:50 UTC.
Position N 38°53' W 124°23'.

Length 294 m; draft 10.3 m.

Type: Cargo ship. MMSI: 538002992.

Date/timePositionNaut miles runAvg speedWind from/ knotsBaromVisibWave heightAir tempDewpointWater temp
2016-May-03 22:27N 38°53' W 124°23'1415.7
2016-May-03 21:32N 38°44' W 124°09'1515.6
2016-May-03 20:33N 38°34' W 123°54'1615.8
2016-May-03 19:33N 38°23' W 123°39'1615.9
2016-May-03 18:33N 38°13' W 123°24'10 9.7
2016-May-03 17:33N 38°05' W 123°16'9 9.1
2016-May-03 16:33N 37°58' W 123°08'9 9.0
2016-May-03 15:33N 37°54' W 122°58'9 9.3
2016-May-03 14:33N 37°49' W 122°48'9 8.7
2016-May-03 13:33N 37°46' W 122°38'1211.6
2016-May-03 12:33N 37°50' W 122°24'5 4.4
2016-May-03 11:32N 37°48' W 122°19'0 0.0
2016-May-03 10:32N 37°48' W 122°19'0 0.0
2016-May-03 09:32N 37°48' W 122°19'0 0.0
2016-May-03 08:32N 37°48' W 122°19'0 0.0
2016-May-03 07:32N 37°48' W 122°19'0 0.0
2016-May-03 06:32N 37°48' W 122°19'0 0.0
2016-May-03 05:32N 37°48' W 122°19'0 0.0
2016-May-03 04:32N 37°48' W 122°19'0 0.0
2016-May-03 03:32N 37°48' W 122°19'0 0.0
2016-May-03 02:32N 37°48' W 122°19'0 0.0
2016-May-03 01:32N 37°48' W 122°19'1 1.2
2016-May-03 00:33N 37°48' W 122°18'2 2.2
2016-May-02 23:33N 37°48' W 122°20'5 5.3
2016-May-02 22:33N 37°49' W 122°27'1110.9
2016-May-02 21:33N 37°45' W 122°40'7 7.3
2016-May-02 20:33N 37°38' W 122°40'7 7.2
2016-May-02 19:33N 37°31' W 122°40'7 7.1
2016-May-02 18:33N 37°24' W 122°40'7 7.5
2016-May-02 17:33N 37°16' W 122°40'8 8.2
2016-May-02 16:33N 37°08' W 122°39'8 8.1
2016-May-02 15:33N 37°00' W 122°36'9 8.9
2016-May-02 14:33N 36°52' W 122°33'1111.4
2016-May-02 13:33N 36°41' W 122°27'1211.9
2016-May-02 12:33N 36°31' W 122°20'1312.6
2016-May-02 11:33N 36°20' W 122°12'1211.5
2016-May-02 10:33N 36°10' W 122°05'1111.3
2016-May-02 09:32N 36°00' W 121°57'1111.0
2016-May-02 08:33N 35°51' W 121°50'1111.2
2016-May-02 07:33N 35°41' W 121°44'1211.4
2016-May-02 06:31N 35°31' W 121°37'2311.3
2016-May-02 04:30N 35°11' W 121°23'1111.3
2016-May-02 03:33N 35°02' W 121°16'1110.9
2016-May-02 02:33N 34°52' W 121°10'2210.8
2016-May-02 00:33N 34°33' W 120°57'11710.6
2016-May-01 13:30N 33°50' W 118°45'14 9.4
2016-May-01 12:04N 33°43' W 118°31'6 9.4
2016-May-01 11:28N 33°41' W 118°25'8 8.3
2016-May-01 10:30N 33°40' W 118°16'5 5.7
2016-May-01 09:33N 33°45' W 118°16'1 0.9
2016-May-01 08:31N 33°46' W 118°15'0 0.0
2016-May-01 07:31N 33°46' W 118°15'0 0.0
2016-May-01 06:31N 33°46' W 118°15'0 0.0
2016-May-01 05:32N 33°46' W 118°15'0 0.0
2016-May-01 04:31N 33°46' W 118°15'0 0.0
2016-May-01 03:32N 33°46' W 118°15'0 0.0
2016-May-01 02:31N 33°46' W 118°15'0 0.0
2016-May-01 01:31N 33°46' W 118°15'0 0.0
2016-May-01 00:31N 33°46' W 118°15'0 0.0
2016-Apr-30 23:31N 33°46' W 118°15'0 0.0
2016-Apr-30 22:32N 33°46' W 118°15'0 0.0
2016-Apr-30 21:31N 33°46' W 118°15'0 0.0
2016-Apr-30 20:31N 33°46' W 118°15'0 0.0
2016-Apr-30 19:31N 33°46' W 118°15'0 0.0
2016-Apr-30 18:31N 33°46' W 118°15'0 0.0
2016-Apr-30 17:32N 33°46' W 118°15'0 0.0
2016-Apr-30 16:31N 33°46' W 118°15'0 0.0
2016-Apr-30 15:31N 33°46' W 118°15'0 0.0
2016-Apr-30 14:32N 33°46' W 118°15'0 0.0
2016-Apr-30 13:31N 33°46' W 118°15'0 0.0
2016-Apr-30 12:32N 33°46' W 118°15'0 0.0
2016-Apr-30 11:31N 33°46' W 118°15'0 0.0
2016-Apr-30 10:31N 33°46' W 118°15'0 0.0
2016-Apr-30 09:29N 33°46' W 118°15'0 0.0
2016-Apr-30 08:31N 33°46' W 118°15'0 0.0
2016-Apr-30 07:32N 33°46' W 118°15'0 0.0
2016-Apr-30 06:32N 33°46' W 118°15'0 0.0
2016-Apr-30 05:32N 33°46' W 118°15'0 0.0
2016-Apr-30 04:32N 33°46' W 118°15'0 0.0
2016-Apr-30 03:31N 33°46' W 118°15'0 0.0
2016-Apr-30 02:31N 33°46' W 118°15'0 0.0
2016-Apr-30 01:31N 33°46' W 118°15'0 0.0
2016-Apr-30 00:31N 33°46' W 118°15'0 0.0
2016-Apr-29 23:31N 33°46' W 118°15'0 0.0
2016-Apr-29 22:31N 33°46' W 118°15'0 0.0
2016-Apr-29 21:31N 33°46' W 118°15'0 0.0
2016-Apr-29 20:28N 33°46' W 118°15'0 0.0
2016-Apr-29 19:32N 33°46' W 118°15'0 0.0
2016-Apr-29 18:32N 33°46' W 118°15'0 0.0
2016-Apr-29 17:32N 33°46' W 118°15'0 0.0
2016-Apr-29 16:31N 33°46' W 118°15'0 0.4
2016-Apr-29 15:33N 33°45' W 118°16'7 6.9
2016-Apr-29 14:33N 33°39' W 118°13'15 7.4
2016-Apr-29 12:33N 33°26' W 118°05'8 8.0
2016-Apr-29 11:33N 33°18' W 118°02'8 8.2
2016-Apr-29 10:32N 33°10' W 117°59'1515.9
2016-Apr-29 09:33N 32°55' W 117°54'1716.7
2016-Apr-29 08:33N 32°39' W 117°48'1616.5
2016-Apr-29 07:33N 32°24' W 117°41'  
Track history (hours):
 
Tides and Currents Weather Stations Pressure Air Temp Water Temp Dewpoint Dewpoint Depression Visibility Wind Speed Wind Dir Waves Ship Positions

Nyk Constellation

Last reported at 2016-May-03 22:27 UTC. Time now 2016-May-05 02:50 UTC.
Position N 38°53' W 124°23'.

Length 294 m; draft 10.3 m.

Type: Cargo ship. MMSI: 538002992.

Date/timePositionNaut miles runAvg speedWind from/ knotsBaromVisibWave heightAir tempDewpointWater temp
2016-May-03 22:27N 38°53' W 124°23'1415.7
2016-May-03 21:32N 38°44' W 124°09'1515.6
2016-May-03 20:33N 38°34' W 123°54'1615.8
2016-May-03 19:33N 38°23' W 123°39'1615.9
2016-May-03 18:33N 38°13' W 123°24'10 9.7
2016-May-03 17:33N 38°05' W 123°16'9 9.1
2016-May-03 16:33N 37°58' W 123°08'9 9.0
2016-May-03 15:33N 37°54' W 122°58'9 9.3
2016-May-03 14:33N 37°49' W 122°48'9 8.7
2016-May-03 13:33N 37°46' W 122°38'1211.6
2016-May-03 12:33N 37°50' W 122°24'5 4.4
2016-May-03 11:32N 37°48' W 122°19'0 0.0
2016-May-03 10:32N 37°48' W 122°19'0 0.0
2016-May-03 09:32N 37°48' W 122°19'0 0.0
2016-May-03 08:32N 37°48' W 122°19'0 0.0
2016-May-03 07:32N 37°48' W 122°19'0 0.0
2016-May-03 06:32N 37°48' W 122°19'0 0.0
2016-May-03 05:32N 37°48' W 122°19'0 0.0
2016-May-03 04:32N 37°48' W 122°19'0 0.0
2016-May-03 03:32N 37°48' W 122°19'0 0.0
2016-May-03 02:32N 37°48' W 122°19'0 0.0
2016-May-03 01:32N 37°48' W 122°19'1 1.2
2016-May-03 00:33N 37°48' W 122°18'2 2.2
2016-May-02 23:33N 37°48' W 122°20'5 5.3
2016-May-02 22:33N 37°49' W 122°27'1110.9
2016-May-02 21:33N 37°45' W 122°40'7 7.3
2016-May-02 20:33N 37°38' W 122°40'7 7.2
2016-May-02 19:33N 37°31' W 122°40'7 7.1
2016-May-02 18:33N 37°24' W 122°40'7 7.5
2016-May-02 17:33N 37°16' W 122°40'8 8.2
2016-May-02 16:33N 37°08' W 122°39'8 8.1
2016-May-02 15:33N 37°00' W 122°36'9 8.9
2016-May-02 14:33N 36°52' W 122°33'1111.4
2016-May-02 13:33N 36°41' W 122°27'1211.9
2016-May-02 12:33N 36°31' W 122°20'1312.6
2016-May-02 11:33N 36°20' W 122°12'1211.5
2016-May-02 10:33N 36°10' W 122°05'1111.3
2016-May-02 09:32N 36°00' W 121°57'1111.0
2016-May-02 08:33N 35°51' W 121°50'1111.2
2016-May-02 07:33N 35°41' W 121°44'1211.4
2016-May-02 06:31N 35°31' W 121°37'2311.3
2016-May-02 04:30N 35°11' W 121°23'1111.3
2016-May-02 03:33N 35°02' W 121°16'1110.9
2016-May-02 02:33N 34°52' W 121°10'2210.8
2016-May-02 00:33N 34°33' W 120°57'11710.6
2016-May-01 13:30N 33°50' W 118°45'14 9.4
2016-May-01 12:04N 33°43' W 118°31'6 9.4
2016-May-01 11:28N 33°41' W 118°25'8 8.3
2016-May-01 10:30N 33°40' W 118°16'5 5.7
2016-May-01 09:33N 33°45' W 118°16'1 0.9
2016-May-01 08:31N 33°46' W 118°15'0 0.0
2016-May-01 07:31N 33°46' W 118°15'0 0.0
2016-May-01 06:31N 33°46' W 118°15'0 0.0
2016-May-01 05:32N 33°46' W 118°15'0 0.0
2016-May-01 04:31N 33°46' W 118°15'0 0.0
2016-May-01 03:32N 33°46' W 118°15'0 0.0
2016-May-01 02:31N 33°46' W 118°15'0 0.0
2016-May-01 01:31N 33°46' W 118°15'0 0.0
2016-May-01 00:31N 33°46' W 118°15'0 0.0
2016-Apr-30 23:31N 33°46' W 118°15'0 0.0
2016-Apr-30 22:32N 33°46' W 118°15'0 0.0
2016-Apr-30 21:31N 33°46' W 118°15'0 0.0
2016-Apr-30 20:31N 33°46' W 118°15'0 0.0
2016-Apr-30 19:31N 33°46' W 118°15'0 0.0
2016-Apr-30 18:31N 33°46' W 118°15'0 0.0
2016-Apr-30 17:32N 33°46' W 118°15'0 0.0
2016-Apr-30 16:31N 33°46' W 118°15'0 0.0
2016-Apr-30 15:31N 33°46' W 118°15'0 0.0
2016-Apr-30 14:32N 33°46' W 118°15'0 0.0
2016-Apr-30 13:31N 33°46' W 118°15'0 0.0
2016-Apr-30 12:32N 33°46' W 118°15'0 0.0
2016-Apr-30 11:31N 33°46' W 118°15'0 0.0
2016-Apr-30 10:31N 33°46' W 118°15'0 0.0
2016-Apr-30 09:29N 33°46' W 118°15'0 0.0
2016-Apr-30 08:31N 33°46' W 118°15'0 0.0
2016-Apr-30 07:32N 33°46' W 118°15'0 0.0
2016-Apr-30 06:32N 33°46' W 118°15'0 0.0
2016-Apr-30 05:32N 33°46' W 118°15'0 0.0
2016-Apr-30 04:32N 33°46' W 118°15'0 0.0
2016-Apr-30 03:31N 33°46' W 118°15'0 0.0
2016-Apr-30 02:31N 33°46' W 118°15'0 0.0
2016-Apr-30 01:31N 33°46' W 118°15'0 0.0
2016-Apr-30 00:31N 33°46' W 118°15'0 0.0
2016-Apr-29 23:31N 33°46' W 118°15'0 0.0
2016-Apr-29 22:31N 33°46' W 118°15'0 0.0
2016-Apr-29 21:31N 33°46' W 118°15'0 0.0
2016-Apr-29 20:28N 33°46' W 118°15'0 0.0
2016-Apr-29 19:32N 33°46' W 118°15'0 0.0
2016-Apr-29 18:32N 33°46' W 118°15'0 0.0
2016-Apr-29 17:32N 33°46' W 118°15'0 0.0
2016-Apr-29 16:31N 33°46' W 118°15'0 0.4
2016-Apr-29 15:33N 33°45' W 118°16'7 6.9
2016-Apr-29 14:33N 33°39' W 118°13'15 7.4
2016-Apr-29 12:33N 33°26' W 118°05'8 8.0
2016-Apr-29 11:33N 33°18' W 118°02'8 8.2
2016-Apr-29 10:32N 33°10' W 117°59'1515.9
2016-Apr-29 09:33N 32°55' W 117°54'1716.7
2016-Apr-29 08:33N 32°39' W 117°48'1616.5
2016-Apr-29 07:33N 32°24' W 117°41'  

Dump ship's entire track history